createdAt,value
2023-04-14T00:00:36.931Z,11.23
2023-04-14T00:03:09.939Z,11.23
2023-04-14T00:05:42.940Z,11.20
2023-04-14T00:08:15.630Z,11.18
2023-04-14T00:10:48.373Z,11.04
2023-04-14T00:13:22.527Z,11.02
2023-04-14T00:15:56.124Z,11.13
2023-04-14T00:18:28.736Z,11.15
2023-04-14T00:21:02.419Z,11.10
2023-04-14T00:23:35.286Z,10.99
2023-04-14T00:26:08.550Z,11.08
2023-04-14T00:28:43.446Z,11.08
2023-04-14T00:31:16.198Z,11.04
2023-04-14T00:33:48.899Z,11.04
2023-04-14T00:36:21.776Z,11.03
2023-04-14T00:38:54.439Z,10.98
2023-04-14T00:41:27.200Z,10.90
2023-04-14T00:44:02.818Z,10.97
2023-04-14T00:46:36.332Z,10.92
2023-04-14T00:49:09.482Z,10.88
2023-04-14T00:51:42.585Z,10.93
2023-04-14T00:54:18.098Z,10.82
2023-04-14T00:56:52.502Z,10.82
2023-04-14T00:59:28.704Z,10.78
2023-04-14T01:02:01.990Z,10.77
2023-04-14T01:04:52.013Z,10.67
2023-04-14T01:07:29.155Z,10.75
2023-04-14T01:10:01.990Z,10.74
2023-04-14T01:12:50.842Z,10.67
2023-04-14T01:15:29.983Z,10.69
2023-04-14T01:18:08.921Z,10.62
2023-04-14T01:20:43.263Z,10.61
2023-04-14T01:23:22.662Z,10.64
2023-04-14T01:26:29.847Z,10.62
2023-04-14T01:29:21.125Z,10.64
2023-04-14T01:32:03.168Z,10.53
2023-04-14T01:34:39.483Z,10.53
2023-04-14T01:37:16.614Z,10.61
2023-04-14T01:39:53.249Z,10.54
2023-04-14T01:42:32.689Z,10.52
2023-04-14T01:45:15.477Z,10.51
2023-04-14T01:47:52.820Z,10.53
2023-04-14T01:50:28.062Z,10.50
2023-04-14T01:53:04.353Z,10.51
2023-04-14T01:55:39.635Z,10.44
2023-04-14T01:58:16.510Z,10.50
2023-04-14T02:00:50.638Z,10.47
2023-04-14T02:03:26.643Z,10.40
2023-04-14T02:06:00.569Z,10.35
2023-04-14T02:08:34.728Z,10.40
2023-04-14T02:11:09.874Z,10.42
2023-04-14T02:13:44.192Z,10.38
2023-04-14T02:16:18.546Z,10.35
2023-04-14T02:18:54.488Z,10.25
2023-04-14T02:21:28.656Z,10.30
2023-04-14T02:24:01.360Z,10.24
2023-04-14T02:26:38.949Z,10.24
2023-04-14T02:29:14.800Z,10.26
2023-04-14T02:31:53.794Z,10.27
2023-04-14T02:34:31.412Z,10.23
2023-04-14T02:37:10.451Z,10.22
2023-04-14T02:39:46.125Z,10.23
2023-04-14T02:42:21.942Z,10.23
2023-04-14T02:45:01.608Z,10.20
2023-04-14T02:47:38.415Z,10.15
2023-04-14T02:50:15.386Z,10.18
2023-04-14T02:52:55.829Z,10.17
2023-04-14T02:55:33.592Z,10.14
2023-04-14T02:58:06.712Z,10.13
2023-04-14T03:00:44.152Z,10.07
2023-04-14T03:03:18.721Z,10.12
2023-04-14T03:05:53.985Z,10.09
2023-04-14T03:08:28.156Z,10.11
2023-04-14T03:11:03.331Z,10.09
2023-04-14T03:13:38.853Z,10.05
2023-04-14T03:16:14.463Z,10.02
2023-04-14T03:18:49.045Z,10.06
2023-04-14T03:21:25.196Z,10.01
2023-04-14T03:23:59.812Z,9.99
2023-04-14T03:26:36.859Z,9.94
2023-04-14T03:29:11.598Z,10.02
2023-04-14T03:31:45.213Z,10.01
2023-04-14T03:34:18.927Z,10.01
2023-04-14T03:36:59.359Z,9.93
2023-04-14T03:39:34.543Z,9.93
2023-04-14T03:42:09.016Z,9.96
2023-04-14T03:44:49.909Z,9.92
2023-04-14T03:47:23.678Z,9.90
2023-04-14T03:49:59.783Z,9.89
2023-04-14T03:52:36.442Z,9.83
2023-04-14T03:55:12.549Z,9.83
2023-04-14T03:57:48.261Z,9.88
2023-04-14T04:00:21.845Z,9.85
2023-04-14T04:02:56.501Z,9.86
2023-04-14T04:05:30.486Z,9.82
2023-04-14T04:08:06.612Z,9.86
2023-04-14T04:10:40.453Z,9.77
2023-04-14T04:13:17.043Z,9.79
2023-04-14T04:15:52.552Z,9.80
2023-04-14T04:18:28.914Z,9.80
2023-04-14T04:21:03.746Z,9.73
2023-04-14T04:23:42.156Z,9.74
2023-04-14T04:26:16.907Z,9.78
2023-04-14T04:28:50.257Z,9.74
2023-04-14T04:31:24.762Z,9.77
2023-04-14T04:33:58.419Z,9.76
2023-04-14T04:36:32.964Z,9.80
2023-04-14T04:39:07.279Z,9.73
2023-04-14T04:41:45.797Z,9.79
2023-04-14T04:44:19.025Z,9.82
2023-04-14T04:46:53.441Z,9.80
2023-04-14T04:49:30.344Z,9.78
2023-04-14T04:52:08.224Z,9.65
2023-04-14T04:54:42.302Z,9.63
2023-04-14T04:57:15.006Z,9.67
2023-04-14T04:59:47.810Z,9.64
2023-04-14T05:02:20.905Z,9.67
2023-04-14T05:04:53.804Z,9.58
2023-04-14T05:07:26.652Z,9.61
2023-04-14T05:10:00.726Z,9.59
2023-04-14T05:12:33.383Z,9.65
2023-04-14T05:15:08.440Z,9.63
2023-04-14T05:17:41.454Z,9.57
2023-04-14T05:20:14.064Z,9.60
2023-04-14T05:22:46.884Z,9.55
2023-04-14T05:25:21.412Z,9.57
2023-04-14T05:27:54.165Z,9.58
2023-04-14T05:30:27.457Z,9.58
2023-04-14T05:33:00.398Z,9.55
2023-04-14T05:35:33.142Z,9.56
2023-04-14T05:38:05.953Z,9.56
2023-04-14T05:40:41.000Z,9.58
2023-04-14T05:43:14.303Z,9.57
2023-04-14T05:45:47.288Z,9.61
2023-04-14T05:48:20.349Z,9.57
2023-04-14T05:50:53.379Z,9.60
2023-04-14T05:53:26.286Z,9.64
2023-04-14T05:56:00.675Z,9.64
2023-04-14T05:58:33.473Z,9.62
2023-04-14T06:01:06.325Z,9.64
2023-04-14T06:03:40.576Z,9.64
2023-04-14T06:06:13.730Z,9.58
2023-04-14T06:08:46.542Z,9.63
2023-04-14T06:11:20.775Z,9.66
2023-04-14T06:13:53.768Z,9.67
2023-04-14T06:16:26.504Z,9.62
2023-04-14T06:18:59.652Z,9.73
2023-04-14T06:21:32.782Z,9.70
2023-04-14T06:24:06.172Z,9.73
2023-04-14T06:26:40.250Z,9.71
2023-04-14T06:29:13.291Z,9.92
2023-04-14T06:31:46.242Z,9.80
2023-04-14T06:34:19.173Z,9.89
2023-04-14T06:36:53.076Z,9.92
2023-04-14T06:39:27.285Z,9.83
2023-04-14T06:42:01.548Z,9.77
2023-04-14T06:44:35.351Z,9.81
2023-04-14T06:47:09.070Z,9.88
2023-04-14T06:49:41.771Z,9.90
2023-04-14T06:52:14.489Z,9.98
2023-04-14T06:54:47.226Z,9.89
2023-04-14T06:57:21.466Z,10.02
2023-04-14T06:59:54.558Z,10.05
2023-04-14T07:02:28.606Z,10.06
2023-04-14T07:05:01.808Z,10.13
2023-04-14T07:07:36.149Z,10.11
2023-04-14T07:10:09.769Z,10.21
2023-04-14T07:12:43.872Z,10.22
2023-04-14T07:15:17.294Z,10.30
2023-04-14T07:17:50.095Z,10.36
2023-04-14T07:20:22.983Z,10.49
2023-04-14T07:22:56.449Z,10.52
2023-04-14T07:25:29.246Z,10.59
2023-04-14T07:28:04.215Z,10.78
2023-04-14T07:30:37.152Z,10.90
2023-04-14T07:33:10.017Z,11.03
2023-04-14T07:35:54.389Z,11.21
2023-04-14T07:38:33.978Z,11.46
2023-04-14T07:41:07.605Z,11.53
2023-04-14T07:43:41.872Z,11.54
2023-04-14T07:46:15.049Z,11.69
2023-04-14T07:48:47.872Z,11.74
2023-04-14T07:51:21.019Z,11.89
2023-04-14T07:53:56.771Z,11.96
2023-04-14T07:56:29.525Z,12.16
2023-04-14T07:59:03.818Z,12.26
2023-04-14T08:01:36.606Z,12.32
2023-04-14T08:04:09.408Z,12.52
2023-04-14T08:06:42.722Z,12.58
2023-04-14T08:09:16.022Z,12.66
2023-04-14T08:11:48.884Z,12.69
2023-04-14T08:14:22.957Z,12.33
2023-04-14T08:16:55.808Z,12.60
2023-04-14T08:19:28.452Z,12.53
2023-04-14T08:22:01.337Z,12.73
2023-04-14T08:24:36.017Z,12.62
2023-04-14T08:27:10.585Z,12.67
2023-04-14T08:29:44.535Z,12.76
2023-04-14T08:32:17.251Z,12.94
2023-04-14T08:35:38.167Z,13.07
2023-04-14T08:37:42.783Z,13.12
2023-04-14T08:40:18.881Z,13.23
2023-04-14T08:42:51.658Z,13.24
2023-04-14T08:45:26.782Z,13.58
2023-04-14T08:48:02.385Z,13.82
2023-04-14T08:50:47.557Z,13.60
2023-04-14T08:53:23.891Z,13.48
2023-04-14T08:55:58.561Z,13.55
2023-04-14T08:58:32.345Z,13.75
2023-04-14T09:01:07.515Z,14.05
2023-04-14T09:03:41.283Z,13.62
2023-04-14T09:06:15.106Z,14.36
2023-04-14T09:08:48.031Z,14.33
2023-04-14T09:11:20.762Z,14.07
2023-04-14T09:13:54.951Z,14.18
2023-04-14T09:16:29.863Z,14.37
2023-04-14T09:19:06.930Z,14.29
2023-04-14T09:21:52.308Z,14.28
2023-04-14T09:24:32.488Z,14.62
2023-04-14T09:27:06.822Z,14.46
2023-04-14T09:29:39.966Z,15.19
2023-04-14T09:32:14.060Z,15.71
2023-04-14T09:34:53.897Z,15.85
2023-04-14T09:37:28.139Z,16.09
2023-04-14T09:40:00.916Z,16.23
2023-04-14T09:42:39.569Z,16.21
2023-04-14T09:45:12.589Z,16.30
2023-04-14T09:47:46.663Z,16.45
2023-04-14T09:50:20.004Z,16.48
2023-04-14T09:52:52.947Z,16.58
2023-04-14T09:55:26.123Z,16.76
2023-04-14T09:57:58.878Z,16.85
2023-04-14T10:00:32.996Z,16.87
2023-04-14T10:03:07.331Z,17.15
2023-04-14T10:05:40.104Z,17.19
2023-04-14T10:08:12.930Z,17.09
2023-04-14T10:10:45.850Z,17.18
2023-04-14T10:13:19.340Z,17.00
2023-04-14T10:15:52.295Z,15.91
2023-04-14T10:18:26.297Z,16.20
2023-04-14T10:20:59.792Z,16.67
2023-04-14T10:23:33.326Z,17.05
2023-04-14T10:26:07.478Z,16.68
2023-04-14T10:28:42.075Z,16.93
2023-04-14T10:31:20.184Z,16.72
2023-04-14T10:33:55.253Z,16.63
2023-04-14T10:36:30.748Z,16.81
2023-04-14T10:39:05.427Z,16.79
2023-04-14T10:41:47.187Z,16.67
2023-04-14T10:44:27.482Z,17.63
2023-04-14T10:47:02.125Z,17.41
2023-04-14T10:49:38.220Z,17.07
2023-04-14T10:52:33.445Z,17.28
2023-04-14T10:55:12.174Z,17.76
2023-04-14T10:57:47.028Z,18.27
2023-04-14T11:00:28.256Z,17.52
2023-04-14T11:03:05.532Z,17.75
2023-04-14T11:05:43.787Z,17.35
2023-04-14T11:08:18.161Z,18.34
2023-04-14T11:10:52.038Z,18.52
2023-04-14T11:13:24.926Z,18.64
2023-04-14T11:15:59.256Z,18.14
2023-04-14T11:18:38.850Z,17.92
2023-04-14T11:21:15.059Z,17.86
2023-04-14T11:23:49.145Z,18.27
2023-04-14T11:26:27.752Z,18.62
2023-04-14T11:29:09.199Z,19.01
2023-04-14T11:31:44.140Z,18.46
2023-04-14T11:34:17.013Z,17.99
2023-04-14T11:36:51.907Z,18.50
2023-04-14T11:39:30.486Z,18.45
2023-04-14T11:42:03.624Z,18.19
2023-04-14T11:44:36.965Z,18.53
2023-04-14T11:47:12.260Z,18.75
2023-04-14T11:49:45.295Z,18.67
2023-04-14T11:52:21.879Z,18.53
2023-04-14T11:54:54.785Z,18.34
2023-04-14T11:57:27.899Z,17.67
2023-04-14T12:00:01.015Z,18.49
2023-04-14T12:02:33.854Z,18.84
2023-04-14T12:05:08.382Z,18.67
2023-04-14T12:07:45.693Z,18.12
2023-04-14T12:10:19.508Z,18.93
2023-04-14T12:13:00.136Z,18.61
2023-04-14T12:15:36.806Z,18.80
2023-04-14T12:18:11.711Z,18.53
2023-04-14T12:20:46.774Z,18.75
2023-04-14T12:23:21.226Z,18.28
2023-04-14T12:25:54.489Z,18.50
2023-04-14T12:28:29.256Z,18.47
2023-04-14T12:31:04.729Z,18.28
2023-04-14T12:33:37.812Z,17.81
2023-04-14T12:36:15.339Z,18.39
2023-04-14T12:38:50.058Z,18.19
2023-04-14T12:41:26.538Z,18.13
2023-04-14T12:43:59.522Z,18.13
2023-04-14T12:46:32.825Z,18.02
2023-04-14T12:49:05.951Z,18.14
2023-04-14T12:51:44.022Z,17.99
2023-04-14T12:54:21.847Z,18.29
2023-04-14T12:56:54.582Z,17.71
2023-04-14T12:59:27.339Z,17.95
2023-04-14T13:02:00.255Z,17.61
2023-04-14T13:04:33.102Z,18.14
2023-04-14T13:07:05.927Z,18.13
2023-04-14T13:09:40.334Z,18.38
2023-04-14T13:12:15.564Z,18.00
2023-04-14T13:14:48.366Z,18.38
2023-04-14T13:17:21.335Z,18.45
2023-04-14T13:19:54.214Z,18.36
2023-04-14T13:22:27.396Z,18.14
2023-04-14T13:25:02.478Z,17.89
2023-04-14T13:27:35.389Z,17.71
2023-04-14T13:30:08.748Z,18.09
2023-04-14T13:32:41.572Z,18.57
2023-04-14T13:35:14.201Z,18.62
2023-04-14T13:37:47.015Z,18.57
2023-04-14T13:40:21.135Z,18.81
2023-04-14T13:42:54.112Z,18.48
2023-04-14T13:45:26.917Z,18.29
2023-04-14T13:48:01.456Z,18.33
2023-04-14T13:50:34.366Z,18.46
2023-04-14T13:53:07.402Z,18.50
2023-04-14T13:55:42.443Z,18.48
2023-04-14T13:58:15.362Z,18.53
2023-04-14T14:00:47.927Z,18.57
2023-04-14T14:03:20.921Z,18.59
2023-04-14T14:05:56.434Z,18.52
2023-04-14T14:08:30.509Z,18.69
2023-04-14T14:11:05.490Z,18.76
2023-04-14T14:14:06.649Z,18.81
2023-04-14T14:16:41.736Z,18.83
2023-04-14T14:19:17.250Z,18.81
2023-04-14T14:21:50.120Z,18.83
2023-04-14T14:24:23.138Z,18.89
2023-04-14T14:27:00.549Z,19.02
2023-04-14T14:29:35.174Z,19.09
2023-04-14T14:32:08.694Z,19.10
2023-04-14T14:34:41.692Z,19.24
2023-04-14T14:37:17.497Z,19.36
2023-04-14T14:39:50.606Z,19.53
2023-04-14T14:42:25.220Z,19.51
2023-04-14T14:44:58.311Z,19.56
2023-04-14T14:47:31.909Z,19.56
2023-04-14T14:50:08.303Z,19.66
2023-04-14T14:52:41.439Z,19.76
2023-04-14T14:55:14.209Z,19.83
2023-04-14T14:57:48.406Z,19.89
2023-04-14T15:00:21.791Z,19.88
2023-04-14T15:02:54.893Z,19.95
2023-04-14T15:05:28.275Z,20.00
2023-04-14T15:08:01.133Z,20.03
2023-04-14T15:10:33.835Z,20.05
2023-04-14T15:13:08.037Z,19.99
2023-04-14T15:15:41.335Z,19.94
2023-04-14T15:18:14.168Z,19.96
2023-04-14T15:20:47.946Z,19.88
2023-04-14T15:23:20.740Z,19.82
2023-04-14T15:25:53.616Z,19.76
2023-04-14T15:28:28.333Z,19.72
2023-04-14T15:31:01.248Z,19.64
2023-04-14T15:33:33.973Z,19.48
2023-04-14T15:36:07.720Z,19.50
2023-04-14T15:38:40.524Z,19.45
2023-04-14T15:41:13.367Z,19.45
2023-04-14T15:43:47.691Z,19.40
2023-04-14T15:46:20.614Z,19.33
2023-04-14T15:48:53.763Z,19.32
2023-04-14T15:51:52.945Z,19.19
2023-04-14T15:54:30.948Z,19.19
2023-04-14T15:57:04.347Z,19.05
2023-04-14T15:59:38.448Z,19.03
2023-04-14T16:02:11.285Z,18.98
2023-04-14T16:04:44.409Z,18.91
2023-04-14T16:07:17.308Z,18.83
2023-04-14T16:09:50.281Z,18.82
2023-04-14T16:12:25.951Z,18.69
2023-04-14T16:15:00.108Z,18.70
2023-04-14T16:17:33.041Z,18.62
2023-04-14T16:20:06.820Z,18.61
2023-04-14T16:22:39.608Z,18.58
2023-04-14T16:25:12.370Z,18.52
2023-04-14T16:27:45.165Z,18.56
2023-04-14T16:30:19.411Z,18.46
2023-04-14T16:32:52.337Z,18.41
2023-04-14T16:35:25.746Z,18.34
2023-04-14T16:37:59.567Z,18.23
2023-04-14T16:40:32.547Z,18.18
2023-04-14T16:43:06.308Z,18.18
2023-04-14T16:45:41.717Z,18.14
2023-04-14T16:48:14.680Z,18.09
2023-04-14T16:50:48.755Z,18.11
2023-04-14T16:53:22.128Z,18.03
2023-04-14T16:56:03.784Z,17.99
2023-04-14T16:58:37.861Z,18.04
2023-04-14T17:01:12.117Z,18.05
2023-04-14T17:03:45.083Z,17.98
2023-04-14T17:06:18.279Z,17.97
2023-04-14T17:08:50.871Z,18.00
2023-04-14T17:11:23.705Z,17.92
2023-04-14T17:13:56.379Z,17.96
2023-04-14T17:16:30.508Z,17.98
2023-04-14T17:19:04.385Z,17.89
2023-04-14T17:21:38.464Z,17.78
2023-04-14T17:24:11.607Z,17.74
2023-04-14T17:26:44.808Z,17.74
2023-04-14T17:29:17.648Z,17.74
2023-04-14T17:31:51.876Z,17.72
2023-04-14T17:34:25.565Z,17.57
2023-04-14T17:36:58.794Z,17.53
2023-04-14T17:39:32.413Z,17.61
2023-04-14T17:42:05.288Z,17.56
2023-04-14T17:44:38.301Z,17.45
2023-04-14T17:47:15.515Z,17.41
2023-04-14T17:49:48.828Z,17.37
2023-04-14T17:52:25.917Z,17.40
2023-04-14T17:54:58.612Z,17.33
2023-04-14T17:57:31.335Z,17.27
2023-04-14T18:00:05.822Z,17.37
2023-04-14T18:02:47.084Z,17.33
2023-04-14T18:05:19.874Z,17.29
2023-04-14T18:07:53.237Z,17.27
2023-04-14T18:10:26.340Z,17.28
2023-04-14T18:12:59.599Z,17.23
2023-04-14T18:15:32.404Z,17.19
2023-04-14T18:18:06.609Z,17.14
2023-04-14T18:20:39.335Z,17.04
2023-04-14T18:23:12.664Z,17.00
2023-04-14T18:28:21.072Z,16.91
2023-04-14T18:30:54.771Z,16.88
2023-04-14T18:33:29.626Z,16.81
2023-04-14T18:36:02.403Z,16.77
2023-04-14T18:38:35.289Z,16.72
2023-04-14T18:41:08.320Z,16.69
2023-04-14T18:43:41.131Z,16.62
2023-04-14T18:46:21.540Z,16.59
2023-04-14T18:48:55.875Z,16.51
2023-04-14T18:51:28.645Z,16.47
2023-04-14T18:54:01.632Z,16.45
2023-04-14T18:56:34.640Z,16.38
2023-04-14T18:59:07.651Z,16.30
2023-04-14T19:01:40.545Z,16.26
2023-04-14T19:04:14.739Z,16.17
2023-04-14T19:06:49.107Z,16.12
2023-04-14T19:09:23.151Z,16.07
2023-04-14T19:11:57.158Z,16.04
2023-04-14T19:14:32.809Z,15.94
2023-04-14T19:17:05.734Z,15.88
2023-04-14T19:19:39.942Z,15.86
2023-04-14T19:22:12.777Z,15.77
2023-04-14T19:24:45.552Z,15.65
2023-04-14T19:27:18.825Z,15.60
2023-04-14T19:29:51.585Z,15.56
2023-04-14T19:32:24.688Z,15.52
2023-04-14T19:34:59.638Z,15.43
2023-04-14T19:37:33.746Z,15.32
2023-04-14T19:40:09.571Z,15.36
2023-04-14T19:42:42.720Z,15.30
2023-04-14T19:45:15.684Z,15.26
2023-04-14T19:47:48.496Z,15.24
2023-04-14T19:50:24.289Z,15.23
2023-04-14T19:52:57.147Z,15.16
2023-04-14T19:55:29.994Z,15.15
2023-04-14T19:58:03.692Z,15.09
2023-04-14T20:00:40.943Z,15.06
2023-04-14T20:03:14.226Z,15.06
2023-04-14T20:05:51.448Z,15.00
2023-04-14T20:08:25.267Z,14.98
2023-04-14T20:10:58.073Z,14.88
2023-04-14T20:13:34.762Z,14.86
2023-04-14T20:16:07.754Z,14.83
2023-04-14T20:18:40.702Z,14.82
2023-04-14T20:21:14.834Z,14.79
2023-04-14T20:23:48.096Z,14.77
2023-04-14T20:26:21.455Z,14.71
2023-04-14T20:28:54.472Z,14.71
2023-04-14T20:31:27.149Z,14.67
2023-04-14T20:34:00.212Z,14.62
2023-04-14T20:36:35.767Z,14.67
2023-04-14T20:39:08.585Z,14.68
2023-04-14T20:41:42.095Z,14.61
2023-04-14T20:44:14.997Z,14.64
2023-04-14T20:46:49.275Z,14.59
2023-04-14T20:49:22.375Z,14.52
2023-04-14T20:51:58.300Z,14.45
2023-04-14T20:54:31.318Z,14.44
2023-04-14T20:57:05.522Z,14.41
2023-04-14T20:59:38.313Z,14.37
2023-04-14T21:02:11.493Z,14.40
2023-04-14T21:04:44.380Z,14.35
2023-04-14T21:07:18.496Z,14.30
2023-04-14T21:09:51.264Z,14.30
2023-04-14T21:12:24.104Z,14.30
2023-04-14T21:15:41.411Z,14.27
2023-04-14T21:17:51.350Z,14.17
2023-04-14T21:20:24.375Z,14.16
2023-04-14T21:22:59.525Z,14.17
2023-04-14T21:25:34.411Z,14.13
2023-04-14T21:28:08.111Z,14.13
2023-04-14T21:30:41.708Z,14.10
2023-04-14T21:33:14.610Z,14.06
2023-04-14T21:35:47.485Z,14.03
2023-04-14T21:38:21.834Z,13.97
2023-04-14T21:40:54.593Z,13.96
2023-04-14T21:43:27.488Z,13.95
2023-04-14T21:46:00.209Z,13.85
2023-04-14T21:48:33.115Z,13.84
2023-04-14T21:51:06.063Z,13.90
2023-04-14T21:53:39.926Z,13.90
2023-04-14T21:56:14.480Z,13.87
2023-04-14T21:58:47.217Z,13.73
2023-04-14T22:01:20.084Z,13.76
2023-04-14T22:03:53.783Z,13.69
2023-04-14T22:06:29.656Z,13.65
2023-04-14T22:09:04.161Z,13.67
2023-04-14T22:11:37.642Z,13.52
2023-04-14T22:14:10.478Z,13.64
2023-04-14T22:16:43.334Z,13.53
2023-04-14T22:19:16.662Z,13.57
2023-04-14T22:21:49.880Z,13.43
2023-04-14T22:24:24.197Z,13.36
2023-04-14T22:26:57.327Z,13.41
2023-04-14T22:29:30.056Z,13.38
2023-04-14T22:32:02.872Z,13.34
2023-04-14T22:34:37.418Z,13.32
2023-04-14T22:37:10.474Z,13.29
2023-04-14T22:39:44.509Z,13.30
2023-04-14T22:42:17.529Z,13.28
2023-04-14T22:44:51.299Z,13.25
2023-04-14T22:47:24.177Z,13.22
2023-04-14T22:49:56.963Z,13.20
2023-04-14T22:52:29.723Z,13.19
2023-04-14T22:55:03.929Z,13.08
2023-04-14T22:57:36.764Z,13.17
2023-04-14T23:00:11.689Z,13.14
2023-04-14T23:02:45.458Z,13.08
2023-04-14T23:05:21.455Z,13.03
2023-04-14T23:07:54.504Z,13.08
2023-04-14T23:10:28.454Z,13.11
2023-04-14T23:13:01.809Z,13.08
2023-04-14T23:15:34.592Z,12.99
2023-04-14T23:18:07.307Z,13.00
2023-04-14T23:20:40.065Z,12.96
2023-04-14T23:23:14.510Z,12.96
2023-04-14T23:25:48.631Z,12.94
2023-04-14T23:28:21.419Z,12.92
2023-04-14T23:30:54.186Z,12.98
2023-04-14T23:33:26.870Z,12.95
2023-04-14T23:35:59.740Z,12.96
2023-04-14T23:38:33.254Z,12.93
2023-04-14T23:41:07.467Z,12.91
2023-04-14T23:43:40.181Z,12.94
2023-04-14T23:46:13.237Z,12.87
2023-04-14T23:48:46.017Z,12.85
2023-04-14T23:51:22.865Z,12.87
2023-04-14T23:53:56.347Z,12.88
2023-04-14T23:56:31.581Z,12.86
2023-04-14T23:59:04.429Z,12.82
